sensor_id;sensor_type;location;lat;lon;timestamp;pressure;altitude;pressure_sealevel;temperature;humidity
17855;BME280;9053;53.358;6.382;2023-05-07T04:38:27;101785.00;;;12.47;100.00
17855;BME280;9053;53.358;6.382;2023-05-07T04:41:03;101785.66;;;12.41;100.00
17855;BME280;9053;53.358;6.382;2023-05-07T04:43:33;101785.28;;;12.32;100.00
17855;BME280;9053;53.358;6.382;2023-05-07T04:46:03;101788.97;;;12.36;100.00
17855;BME280;9053;53.358;6.382;2023-05-07T04:48:33;101782.06;;;12.39;100.00
17855;BME280;9053;53.358;6.382;2023-05-07T04:51:03;101787.34;;;12.39;100.00
17855;BME280;9053;53.358;6.382;2023-05-07T04:53:37;101785.44;;;12.35;100.00
17855;BME280;9053;53.358;6.382;2023-05-07T04:56:07;101778.28;;;12.32;100.00
17855;BME280;9053;53.358;6.382;2023-05-07T04:58:37;101785.09;;;12.27;100.00
17855;BME280;9053;53.358;6.382;2023-05-07T05:01:07;101783.94;;;12.21;100.00
17855;BME280;9053;53.358;6.382;2023-05-07T05:03:37;101783.69;;;12.15;100.00
17855;BME280;9053;53.358;6.382;2023-05-07T05:06:08;101783.34;;;12.07;100.00
17855;BME280;9053;53.358;6.382;2023-05-07T05:08:40;101787.72;;;12.06;100.00
17855;BME280;9053;53.358;6.382;2023-05-07T05:11:10;101786.06;;;12.08;100.00
17855;BME280;9053;53.358;6.382;2023-05-07T05:13:40;101790.69;;;12.14;100.00
17855;BME280;9053;53.358;6.382;2023-05-07T05:16:10;101798.66;;;12.16;100.00
17855;BME280;9053;53.358;6.382;2023-05-07T05:18:40;101804.72;;;12.13;100.00
17855;BME280;9053;53.358;6.382;2023-05-07T05:21:09;101791.41;;;12.10;100.00
17855;BME280;9053;53.358;6.382;2023-05-07T05:23:42;101795.81;;;12.11;100.00
17855;BME280;9053;53.358;6.382;2023-05-07T05:26:12;101806.66;;;12.17;100.00
17855;BME280;9053;53.358;6.382;2023-05-07T05:28:42;101814.22;;;12.09;100.00
17855;BME280;9053;53.358;6.382;2023-05-07T05:31:11;101806.47;;;12.12;100.00
17855;BME280;9053;53.358;6.382;2023-05-07T05:33:50;101800.34;;;12.13;100.00
17855;BME280;9053;53.358;6.382;2023-05-07T05:36:20;101805.69;;;12.15;100.00
17855;BME280;9053;53.358;6.382;2023-05-07T05:38:55;101809.91;;;12.11;100.00
17855;BME280;9053;53.358;6.382;2023-05-07T05:41:33;101820.41;;;12.10;100.00
17855;BME280;9053;53.358;6.382;2023-05-07T05:44:03;101826.66;;;12.12;100.00
17855;BME280;9053;53.358;6.382;2023-05-07T05:46:35;101824.03;;;12.12;100.00
17855;BME280;9053;53.358;6.382;2023-05-07T05:49:12;101817.97;;;12.15;100.00
17855;BME280;9053;53.358;6.382;2023-05-07T05:51:43;101825.03;;;12.16;100.00
17855;BME280;9053;53.358;6.382;2023-05-07T05:54:17;101821.44;;;12.13;100.00
17855;BME280;9053;53.358;6.382;2023-05-07T05:56:47;101824.72;;;12.08;100.00
17855;BME280;9053;53.358;6.382;2023-05-07T05:59:20;101827.84;;;11.99;100.00
17855;BME280;9053;53.358;6.382;2023-05-07T06:01:50;101827.44;;;11.90;100.00
17855;BME280;9053;53.358;6.382;2023-05-07T06:04:23;101820.75;;;11.79;100.00
17855;BME280;9053;53.358;6.382;2023-05-07T06:06:53;101823.13;;;11.73;100.00
17855;BME280;9053;53.358;6.382;2023-05-07T06:09:26;101821.19;;;11.68;100.00
17855;BME280;9053;53.358;6.382;2023-05-07T06:11:56;101823.94;;;11.72;100.00
17855;BME280;9053;53.358;6.382;2023-05-07T06:14:37;101824.69;;;11.69;100.00
17855;BME280;9053;53.358;6.382;2023-05-07T06:17:13;101820.53;;;11.74;100.00
17855;BME280;9053;53.358;6.382;2023-05-07T06:19:47;101830.31;;;11.77;100.00
17855;BME280;9053;53.358;6.382;2023-05-07T06:22:20;101834.47;;;11.72;100.00
17855;BME280;9053;53.358;6.382;2023-05-07T06:24:52;101835.53;;;11.56;100.00
17855;BME280;9053;53.358;6.382;2023-05-07T06:27:22;101836.59;;;11.59;100.00
17855;BME280;9053;53.358;6.382;2023-05-07T06:29:55;101825.88;;;11.56;100.00
17855;BME280;9053;53.358;6.382;2023-05-07T06:32:25;101833.19;;;11.62;100.00
17855;BME280;9053;53.358;6.382;2023-05-07T06:34:59;101823.13;;;11.73;100.00
17855;BME280;9053;53.358;6.382;2023-05-07T06:37:29;101835.75;;;11.80;100.00
17855;BME280;9053;53.358;6.382;2023-05-07T06:40:23;101837.88;;;11.87;100.00
17855;BME280;9053;53.358;6.382;2023-05-07T06:43:06;101843.25;;;11.90;100.00
17855;BME280;9053;53.358;6.382;2023-05-07T06:45:37;101843.41;;;11.93;100.00
17855;BME280;9053;53.358;6.382;2023-05-07T06:48:08;101840.84;;;11.95;100.00
17855;BME280;9053;53.358;6.382;2023-05-07T06:50:38;101848.03;;;11.99;100.00
17855;BME280;9053;53.358;6.382;2023-05-07T06:53:08;101850.75;;;12.00;100.00
17855;BME280;9053;53.358;6.382;2023-05-07T06:55:52;101849.69;;;11.97;100.00
17855;BME280;9053;53.358;6.382;2023-05-07T06:58:26;101850.78;;;12.02;100.00
17855;BME280;9053;53.358;6.382;2023-05-07T07:00:56;101850.88;;;12.03;100.00
17855;BME280;9053;53.358;6.382;2023-05-07T07:03:26;101858.91;;;12.06;100.00
17855;BME280;9053;53.358;6.382;2023-05-07T07:06:05;101860.00;;;12.11;100.00
17855;BME280;9053;53.358;6.382;2023-05-07T07:08:42;101868.00;;;12.13;100.00
17855;BME280;9053;53.358;6.382;2023-05-07T07:11:15;101871.81;;;12.20;100.00
17855;BME280;9053;53.358;6.382;2023-05-07T07:13:47;101869.34;;;12.24;100.00
17855;BME280;9053;53.358;6.382;2023-05-07T07:16:17;101874.72;;;12.26;100.00
17855;BME280;9053;53.358;6.382;2023-05-07T07:18:58;101872.97;;;12.26;100.00
17855;BME280;9053;53.358;6.382;2023-05-07T07:21:28;101868.47;;;12.04;100.00
17855;BME280;9053;53.358;6.382;2023-05-07T07:24:06;101880.22;;;11.91;100.00
17855;BME280;9053;53.358;6.382;2023-05-07T07:26:43;101873.75;;;11.85;100.00
17855;BME280;9053;53.358;6.382;2023-05-07T07:29:13;101871.72;;;11.97;100.00
17855;BME280;9053;53.358;6.382;2023-05-07T07:34:13;101872.53;;;11.96;100.00
17855;BME280;9053;53.358;6.382;2023-05-07T07:46:16;101888.06;;;11.90;100.00
17855;BME280;9053;53.358;6.382;2023-05-07T07:48:48;101893.81;;;12.01;100.00
17855;BME280;9053;53.358;6.382;2023-05-07T07:51:22;101887.91;;;12.06;100.00
17855;BME280;9053;53.358;6.382;2023-05-07T07:53:56;101889.88;;;12.10;100.00
17855;BME280;9053;53.358;6.382;2023-05-07T07:56:37;101885.78;;;12.17;100.00
17855;BME280;9053;53.358;6.382;2023-05-07T07:59:10;101883.13;;;12.17;100.00
17855;BME280;9053;53.358;6.382;2023-05-07T08:01:47;101881.53;;;12.21;100.00
17855;BME280;9053;53.358;6.382;2023-05-07T08:04:22;101894.28;;;12.31;100.00
17855;BME280;9053;53.358;6.382;2023-05-07T08:06:52;101895.50;;;12.39;100.00
17855;BME280;9053;53.358;6.382;2023-05-07T08:09:26;101892.97;;;12.42;100.00
17855;BME280;9053;53.358;6.382;2023-05-07T08:12:01;101889.41;;;12.40;100.00
17855;BME280;9053;53.358;6.382;2023-05-07T08:14:33;101889.06;;;12.32;100.00
17855;BME280;9053;53.358;6.382;2023-05-07T08:17:08;101890.94;;;12.35;100.00
17855;BME280;9053;53.358;6.382;2023-05-07T08:22:29;101895.38;;;12.36;100.00
17855;BME280;9053;53.358;6.382;2023-05-07T08:25:01;101889.53;;;12.43;100.00
17855;BME280;9053;53.358;6.382;2023-05-07T08:27:33;101887.13;;;12.49;100.00
17855;BME280;9053;53.358;6.382;2023-05-07T08:30:06;101884.66;;;12.52;100.00
17855;BME280;9053;53.358;6.382;2023-05-07T08:32:44;101888.38;;;12.58;100.00
17855;BME280;9053;53.358;6.382;2023-05-07T08:35:20;101884.44;;;12.69;100.00
17855;BME280;9053;53.358;6.382;2023-05-07T08:37:59;101883.47;;;12.67;100.00
17855;BME280;9053;53.358;6.382;2023-05-07T08:40:35;101889.72;;;12.69;100.00
17855;BME280;9053;53.358;6.382;2023-05-07T08:43:13;101883.41;;;12.86;100.00
17855;BME280;9053;53.358;6.382;2023-05-07T08:45:55;101894.41;;;12.97;100.00
17855;BME280;9053;53.358;6.382;2023-05-07T08:48:32;101888.63;;;13.06;100.00
17855;BME280;9053;53.358;6.382;2023-05-07T08:51:06;101893.22;;;13.11;100.00
17855;BME280;9053;53.358;6.382;2023-05-07T08:53:43;101893.34;;;13.14;100.00
17855;BME280;9053;53.358;6.382;2023-05-07T09:01:38;101900.06;;;13.06;100.00
17855;BME280;9053;53.358;6.382;2023-05-07T09:04:35;101893.34;;;13.14;100.00
17855;BME280;9053;53.358;6.382;2023-05-07T09:10:01;101890.22;;;13.25;100.00
17855;BME280;9053;53.358;6.382;2023-05-07T09:12:33;101890.56;;;13.32;100.00
17855;BME280;9053;53.358;6.382;2023-05-07T09:15:04;101894.53;;;13.44;100.00
17855;BME280;9053;53.358;6.382;2023-05-07T09:17:36;101896.50;;;13.49;100.00
17855;BME280;9053;53.358;6.382;2023-05-07T09:20:13;101883.03;;;13.66;100.00
17855;BME280;9053;53.358;6.382;2023-05-07T09:22:49;101894.84;;;13.75;100.00
17855;BME280;9053;53.358;6.382;2023-05-07T09:25:28;101896.78;;;13.79;100.00
17855;BME280;9053;53.358;6.382;2023-05-07T09:27:59;101897.00;;;13.85;100.00
17855;BME280;9053;53.358;6.382;2023-05-07T09:30:31;101901.84;;;13.97;100.00
17855;BME280;9053;53.358;6.382;2023-05-07T09:33:03;101891.53;;;14.05;100.00
17855;BME280;9053;53.358;6.382;2023-05-07T09:35:40;101891.53;;;14.05;100.00
17855;BME280;9053;53.358;6.382;2023-05-07T09:38:12;101885.38;;;14.04;100.00
17855;BME280;9053;53.358;6.382;2023-05-07T09:40:42;101890.94;;;14.12;100.00
17855;BME280;9053;53.358;6.382;2023-05-07T09:43:13;101894.75;;;14.20;100.00
17855;BME280;9053;53.358;6.382;2023-05-07T09:45:43;101904.69;;;14.27;100.00
17855;BME280;9053;53.358;6.382;2023-05-07T09:48:19;101889.41;;;14.19;100.00
17855;BME280;9053;53.358;6.382;2023-05-07T09:50:55;101887.97;;;14.28;100.00
17855;BME280;9053;53.358;6.382;2023-05-07T09:53:33;101892.22;;;14.49;100.00
17855;BME280;9053;53.358;6.382;2023-05-07T09:56:06;101882.22;;;14.66;100.00
17855;BME280;9053;53.358;6.382;2023-05-07T09:58:45;101884.78;;;14.63;100.00
17855;BME280;9053;53.358;6.382;2023-05-07T10:01:27;101879.09;;;14.78;100.00
17855;BME280;9053;53.358;6.382;2023-05-07T10:04:02;101885.88;;;14.97;100.00
17855;BME280;9053;53.358;6.382;2023-05-07T10:06:40;101882.84;;;15.11;100.00
17855;BME280;9053;53.358;6.382;2023-05-07T10:09:13;101900.34;;;15.06;100.00
17855;BME280;9053;53.358;6.382;2023-05-07T10:11:45;101891.72;;;15.12;100.00
17855;BME280;9053;53.358;6.382;2023-05-07T10:14:18;101903.34;;;15.17;100.00
17855;BME280;9053;53.358;6.382;2023-05-07T10:16:58;101902.06;;;15.33;100.00
17855;BME280;9053;53.358;6.382;2023-05-07T10:19:46;101896.13;;;15.40;100.00
17855;BME280;9053;53.358;6.382;2023-05-07T10:22:22;101895.53;;;15.50;100.00
17855;BME280;9053;53.358;6.382;2023-05-07T10:24:56;101888.66;;;15.57;100.00
17855;BME280;9053;53.358;6.382;2023-05-07T10:27:35;101886.94;;;15.57;100.00
17855;BME280;9053;53.358;6.382;2023-05-07T10:30:15;101887.84;;;15.59;100.00
17855;BME280;9053;53.358;6.382;2023-05-07T10:32:55;101889.56;;;15.57;100.00
17855;BME280;9053;53.358;6.382;2023-05-07T10:35:41;101888.03;;;15.66;100.00
17855;BME280;9053;53.358;6.382;2023-05-07T10:38:15;101899.31;;;15.58;100.00
17855;BME280;9053;53.358;6.382;2023-05-07T10:40:45;101904.72;;;15.33;100.00
17855;BME280;9053;53.358;6.382;2023-05-07T10:43:18;101907.47;;;15.36;100.00
17855;BME280;9053;53.358;6.382;2023-05-07T10:46:11;101899.59;;;15.39;100.00
17855;BME280;9053;53.358;6.382;2023-05-07T10:49:09;101904.63;;;15.58;100.00
17855;BME280;9053;53.358;6.382;2023-05-07T10:52:11;101912.13;;;15.72;100.00
17855;BME280;9053;53.358;6.382;2023-05-07T10:55:20;101910.78;;;15.57;100.00
17855;BME280;9053;53.358;6.382;2023-05-07T10:58:02;101904.97;;;15.69;100.00
17855;BME280;9053;53.358;6.382;2023-05-07T11:00:57;101914.19;;;15.82;100.00
17855;BME280;9053;53.358;6.382;2023-05-07T11:03:30;101900.00;;;15.80;100.00
17855;BME280;9053;53.358;6.382;2023-05-07T11:06:44;101900.53;;;16.00;100.00
17855;BME280;9053;53.358;6.382;2023-05-07T11:09:06;101898.97;;;16.07;100.00
17855;BME280;9053;53.358;6.382;2023-05-07T11:11:50;101892.69;;;16.03;100.00
17855;BME280;9053;53.358;6.382;2023-05-07T11:14:52;101891.66;;;15.98;100.00
17855;BME280;9053;53.358;6.382;2023-05-07T11:27:09;101886.41;;;15.69;100.00
17855;BME280;9053;53.358;6.382;2023-05-07T11:42:03;101898.09;;;16.39;100.00
17855;BME280;9053;53.358;6.382;2023-05-07T11:44:53;101893.81;;;16.44;100.00
17855;BME280;9053;53.358;6.382;2023-05-07T11:47:30;101901.28;;;16.26;100.00
17855;BME280;9053;53.358;6.382;2023-05-07T11:50:07;101902.06;;;16.22;100.00
17855;BME280;9053;53.358;6.382;2023-05-07T11:52:50;101900.16;;;16.50;100.00
17855;BME280;9053;53.358;6.382;2023-05-07T11:55:24;101904.19;;;16.69;100.00
17855;BME280;9053;53.358;6.382;2023-05-07T11:58:03;101904.22;;;16.70;100.00
17855;BME280;9053;53.358;6.382;2023-05-07T12:00:36;101906.16;;;16.77;100.00
17855;BME280;9053;53.358;6.382;2023-05-07T12:03:06;101906.28;;;16.80;100.00
17855;BME280;9053;53.358;6.382;2023-05-07T12:05:39;101898.78;;;17.00;100.00
17855;BME280;9053;53.358;6.382;2023-05-07T12:08:09;101907.06;;;17.11;100.00
17855;BME280;9053;53.358;6.382;2023-05-07T12:10:51;101905.75;;;16.95;99.39
17855;BME280;9053;53.358;6.382;2023-05-07T12:13:28;101911.13;;;16.97;99.53
17855;BME280;9053;53.358;6.382;2023-05-07T12:16:05;101912.19;;;17.05;99.49
17855;BME280;9053;53.358;6.382;2023-05-07T12:18:36;101914.09;;;17.09;99.35
17855;BME280;9053;53.358;6.382;2023-05-07T12:21:08;101903.81;;;16.88;98.91
17855;BME280;9053;53.358;6.382;2023-05-07T12:23:41;101902.50;;;16.72;99.11
17855;BME280;9053;53.358;6.382;2023-05-07T12:26:13;101907.28;;;16.85;100.00
17855;BME280;9053;53.358;6.382;2023-05-07T12:31:34;101905.59;;;17.25;100.00
17855;BME280;9053;53.358;6.382;2023-05-07T12:34:11;101894.56;;;17.46;100.00
17855;BME280;9053;53.358;6.382;2023-05-07T12:37:05;101913.69;;;17.69;100.00
17855;BME280;9053;53.358;6.382;2023-05-07T12:39:38;101902.50;;;17.84;100.00
17855;BME280;9053;53.358;6.382;2023-05-07T12:42:14;101908.44;;;17.72;99.76
17855;BME280;9053;53.358;6.382;2023-05-07T12:44:50;101906.22;;;17.51;98.74
17855;BME280;9053;53.358;6.382;2023-05-07T12:47:26;101904.78;;;17.67;99.22
17855;BME280;9053;53.358;6.382;2023-05-07T12:49:59;101906.59;;;17.70;98.64
17855;BME280;9053;53.358;6.382;2023-05-07T12:52:28;101906.69;;;17.74;98.39
17855;BME280;9053;53.358;6.382;2023-05-07T12:55:04;101907.00;;;17.87;98.28
17855;BME280;9053;53.358;6.382;2023-05-07T12:57:52;101904.50;;;17.96;97.86
17855;BME280;9053;53.358;6.382;2023-05-07T13:00:34;101902.22;;;17.73;97.23
17855;BME280;9053;53.358;6.382;2023-05-07T13:03:07;101904.88;;;17.73;97.70
17855;BME280;9053;53.358;6.382;2023-05-07T13:05:39;101902.91;;;17.63;97.20
17855;BME280;9053;53.358;6.382;2023-05-07T13:08:08;101903.91;;;17.68;97.39
17855;BME280;9053;53.358;6.382;2023-05-07T13:10:43;101913.66;;;17.68;97.41
17855;BME280;9053;53.358;6.382;2023-05-07T13:13:16;101911.59;;;17.56;97.45
17855;BME280;9053;53.358;6.382;2023-05-07T13:15:54;101912.66;;;17.63;97.63
17855;BME280;9053;53.358;6.382;2023-05-07T13:18:28;101907.53;;;17.73;97.53
17855;BME280;9053;53.358;6.382;2023-05-07T13:21:07;101906.84;;;17.81;97.30
17855;BME280;9053;53.358;6.382;2023-05-07T13:23:46;101902.53;;;17.86;97.02
17855;BME280;9053;53.358;6.382;2023-05-07T13:26:17;101901.78;;;17.93;96.90
17855;BME280;9053;53.358;6.382;2023-05-07T13:28:53;101904.97;;;17.77;96.52
17855;BME280;9053;53.358;6.382;2023-05-07T13:31:30;101908.47;;;17.74;96.82
17855;BME280;9053;53.358;6.382;2023-05-07T13:34:21;101904.50;;;17.96;97.15
17855;BME280;9053;53.358;6.382;2023-05-07T13:36:50;101906.63;;;18.14;97.45
17855;BME280;9053;53.358;6.382;2023-05-07T13:39:32;101907.41;;;18.08;97.29
17855;BME280;9053;53.358;6.382;2023-05-07T13:42:04;101907.47;;;18.11;97.25
17855;BME280;9053;53.358;6.382;2023-05-07T13:44:36;101905.97;;;18.26;97.05
17855;BME280;9053;53.358;6.382;2023-05-07T13:47:10;101919.75;;;18.03;96.17
17855;BME280;9053;53.358;6.382;2023-05-07T13:49:59;101905.03;;;18.22;96.43
17855;BME280;9053;53.358;6.382;2023-05-07T13:52:28;101911.53;;;18.38;96.22
17855;BME280;9053;53.358;6.382;2023-05-07T13:55:07;101901.06;;;18.47;96.23
17855;BME280;9053;53.358;6.382;2023-05-07T13:57:37;101905.75;;;18.60;96.38
17855;BME280;9053;53.358;6.382;2023-05-07T14:00:13;101897.06;;;18.72;96.70
17855;BME280;9053;53.358;6.382;2023-05-07T14:02:43;101891.75;;;18.74;96.37
17855;BME280;9053;53.358;6.382;2023-05-07T14:05:34;101899.81;;;18.77;95.86
17855;BME280;9053;53.358;6.382;2023-05-07T14:08:04;101888.41;;;18.83;95.79
17855;BME280;9053;53.358;6.382;2023-05-07T14:10:44;101893.69;;;18.81;95.31
17855;BME280;9053;53.358;6.382;2023-05-07T14:13:13;101896.91;;;18.65;95.23
17855;BME280;9053;53.358;6.382;2023-05-07T14:15:50;101882.19;;;18.84;95.21
17855;BME280;9053;53.358;6.382;2023-05-07T14:18:21;101885.78;;;18.87;94.96
17855;BME280;9053;53.358;6.382;2023-05-07T14:20:54;101889.50;;;18.95;95.22
17855;BME280;9053;53.358;6.382;2023-05-07T14:23:27;101887.69;;;18.94;95.00
17855;BME280;9053;53.358;6.382;2023-05-07T14:25:58;101892.88;;;18.87;94.69
17855;BME280;9053;53.358;6.382;2023-05-07T14:28:28;101890.09;;;18.77;94.06
17855;BME280;9053;53.358;6.382;2023-05-07T14:31:13;101888.16;;;18.72;93.88
17855;BME280;9053;53.358;6.382;2023-05-07T14:33:47;101879.19;;;18.67;93.78
17855;BME280;9053;53.358;6.382;2023-05-07T14:36:24;101885.56;;;18.75;94.33
17855;BME280;9053;53.358;6.382;2023-05-07T14:38:54;101885.78;;;18.87;94.41
17855;BME280;9053;53.358;6.382;2023-05-07T14:41:26;101884.16;;;18.97;94.13
17855;BME280;9053;53.358;6.382;2023-05-07T14:44:03;101890.38;;;18.97;93.65
17855;BME280;9053;53.358;6.382;2023-05-07T14:46:46;101886.81;;;18.97;93.31
17855;BME280;9053;53.358;6.382;2023-05-07T14:49:16;101891.06;;;18.84;93.03
17855;BME280;9053;53.358;6.382;2023-05-07T14:51:52;101894.75;;;18.92;93.35
17855;BME280;9053;53.358;6.382;2023-05-07T14:54:22;101892.22;;;19.01;93.61
17855;BME280;9053;53.358;6.382;2023-05-07T14:56:59;101899.22;;;18.93;93.26
17855;BME280;9053;53.358;6.382;2023-05-07T14:59:28;101897.25;;;18.81;92.72
17855;BME280;9053;53.358;6.382;2023-05-07T15:01:58;101893.84;;;18.92;92.68
17855;BME280;9053;53.358;6.382;2023-05-07T15:04:35;101893.13;;;19.02;92.45
17855;BME280;9053;53.358;6.382;2023-05-07T15:07:09;101889.72;;;19.12;92.63
17855;BME280;9053;53.358;6.382;2023-05-07T15:09:45;101889.06;;;19.26;92.68
17855;BME280;9053;53.358;6.382;2023-05-07T15:12:15;101901.53;;;19.30;92.58
17855;BME280;9053;53.358;6.382;2023-05-07T15:14:44;101898.72;;;19.19;92.01
17855;BME280;9053;53.358;6.382;2023-05-07T15:17:17;101899.50;;;19.12;91.75
17855;BME280;9053;53.358;6.382;2023-05-07T15:19:47;101899.53;;;19.15;91.98
17855;BME280;9053;53.358;6.382;2023-05-07T15:22:22;101899.63;;;19.19;92.25
17855;BME280;9053;53.358;6.382;2023-05-07T15:24:54;101903.97;;;19.13;92.08
17855;BME280;9053;53.358;6.382;2023-05-07T15:27:25;101901.28;;;19.11;92.22
17855;BME280;9053;53.358;6.382;2023-05-07T15:29:55;101900.50;;;19.20;92.43
17855;BME280;9053;53.358;6.382;2023-05-07T15:32:25;101901.53;;;19.28;92.54
17855;BME280;9053;53.358;6.382;2023-05-07T15:34:57;101907.78;;;19.30;92.09
17855;BME280;9053;53.358;6.382;2023-05-07T15:37:34;101911.41;;;19.34;91.49
17855;BME280;9053;53.358;6.382;2023-05-07T15:40:06;101909.63;;;19.34;91.30
17855;BME280;9053;53.358;6.382;2023-05-07T15:42:37;101907.69;;;19.24;91.13
17855;BME280;9053;53.358;6.382;2023-05-07T15:45:10;101908.41;;;19.12;90.92
17855;BME280;9053;53.358;6.382;2023-05-07T15:47:40;101898.72;;;19.19;91.04
17855;BME280;9053;53.358;6.382;2023-05-07T15:50:12;101897.91;;;19.24;90.96
17855;BME280;9053;53.358;6.382;2023-05-07T15:52:47;101895.31;;;19.29;90.72
17855;BME280;9053;53.358;6.382;2023-05-07T15:55:18;101905.91;;;19.24;90.70
17855;BME280;9053;53.358;6.382;2023-05-07T15:57:53;101904.78;;;19.09;90.54
17855;BME280;9053;53.358;6.382;2023-05-07T16:00:25;101894.91;;;19.01;90.89
17855;BME280;9053;53.358;6.382;2023-05-07T16:02:56;101892.50;;;19.18;91.17
17855;BME280;9053;53.358;6.382;2023-05-07T16:05:26;101895.28;;;19.28;90.80
17855;BME280;9053;53.358;6.382;2023-05-07T16:08:00;101909.53;;;19.30;90.32
17855;BME280;9053;53.358;6.382;2023-05-07T16:10:32;101903.13;;;19.17;90.32
17855;BME280;9053;53.358;6.382;2023-05-07T16:13:01;101909.25;;;19.10;90.37
17855;BME280;9053;53.358;6.382;2023-05-07T16:15:31;101904.78;;;19.09;90.57
17855;BME280;9053;53.358;6.382;2023-05-07T16:18:03;101904.94;;;19.18;90.33
17855;BME280;9053;53.358;6.382;2023-05-07T16:20:37;101906.81;;;19.25;90.21
17855;BME280;9053;53.358;6.382;2023-05-07T16:23:21;101913.09;;;19.30;90.43
17855;BME280;9053;53.358;6.382;2023-05-07T16:25:54;101907.88;;;19.36;90.75
17855;BME280;9053;53.358;6.382;2023-05-07T16:28:27;101915.91;;;19.38;90.80
17855;BME280;9053;53.358;6.382;2023-05-07T16:30:57;101908.66;;;19.29;90.50
17855;BME280;9053;53.358;6.382;2023-05-07T16:33:34;101909.47;;;19.23;90.54
17855;BME280;9053;53.358;6.382;2023-05-07T16:36:07;101905.06;;;19.26;90.43
17855;BME280;9053;53.358;6.382;2023-05-07T16:38:42;101920.91;;;19.16;90.15
17855;BME280;9053;53.358;6.382;2023-05-07T16:41:12;101919.97;;;19.13;89.90
17855;BME280;9053;53.358;6.382;2023-05-07T16:43:48;101915.53;;;19.15;89.85
17855;BME280;9053;53.358;6.382;2023-05-07T16:46:18;101915.59;;;19.16;89.72
17855;BME280;9053;53.358;6.382;2023-05-07T16:48:48;101914.69;;;19.17;89.81
17855;BME280;9053;53.358;6.382;2023-05-07T16:51:18;101920.09;;;19.20;89.85
17855;BME280;9053;53.358;6.382;2023-05-07T16:54:02;101912.94;;;19.19;89.89
17855;BME280;9053;53.358;6.382;2023-05-07T16:56:32;101927.13;;;19.17;90.15
17855;BME280;9053;53.358;6.382;2023-05-07T16:59:02;101927.00;;;19.08;90.29
17855;BME280;9053;53.358;6.382;2023-05-07T17:01:37;101918.00;;;19.01;90.37
17855;BME280;9053;53.358;6.382;2023-05-07T17:04:10;101926.84;;;18.98;90.87
17855;BME280;9053;53.358;6.382;2023-05-07T17:06:43;101933.88;;;18.93;91.10
17855;BME280;9053;53.358;6.382;2023-05-07T17:09:18;101934.59;;;18.83;91.20
17855;BME280;9053;53.358;6.382;2023-05-07T17:11:48;101937.72;;;18.62;91.06
17855;BME280;9053;53.358;6.382;2023-05-07T17:14:23;101941.09;;;18.52;91.24
17855;BME280;9053;53.358;6.382;2023-05-07T17:16:57;101931.28;;;18.49;91.73
17855;BME280;9053;53.358;6.382;2023-05-07T17:19:27;101931.34;;;18.52;91.96
17855;BME280;9053;53.358;6.382;2023-05-07T17:21:59;101925.19;;;18.56;92.59
17855;BME280;9053;53.358;6.382;2023-05-07T17:24:32;101931.41;;;18.55;93.14
17855;BME280;9053;53.358;6.382;2023-05-07T17:27:02;101941.22;;;18.58;93.35
17855;BME280;9053;53.358;6.382;2023-05-07T17:29:32;101948.31;;;18.59;93.30
17855;BME280;9053;53.358;6.382;2023-05-07T17:32:05;101948.38;;;18.60;93.55
17855;BME280;9053;53.358;6.382;2023-05-07T17:34:37;101942.91;;;18.54;93.70
17855;BME280;9053;53.358;6.382;2023-05-07T17:37:07;101935.75;;;18.52;93.68
17855;BME280;9053;53.358;6.382;2023-05-07T17:39:39;101944.69;;;18.52;93.64
17855;BME280;9053;53.358;6.382;2023-05-07T17:42:09;101945.53;;;18.51;93.67
17855;BME280;9053;53.358;6.382;2023-05-07T17:44:39;101947.25;;;18.49;93.77
17855;BME280;9053;53.358;6.382;2023-05-07T17:47:09;101954.34;;;18.47;93.91
17855;BME280;9053;53.358;6.382;2023-05-07T17:49:40;101950.75;;;18.47;93.74
17855;BME280;9053;53.358;6.382;2023-05-07T17:52:09;101952.53;;;18.46;93.53
17855;BME280;9053;53.358;6.382;2023-05-07T17:54:42;101952.47;;;18.43;93.44
17855;BME280;9053;53.358;6.382;2023-05-07T17:57:12;101959.50;;;18.38;93.75
17855;BME280;9053;53.358;6.382;2023-05-07T17:59:41;101958.56;;;18.36;93.71
17855;BME280;9053;53.358;6.382;2023-05-07T18:02:14;101957.63;;;18.34;93.83
17855;BME280;9053;53.358;6.382;2023-05-07T18:04:43;101963.78;;;18.30;93.84
17855;BME280;9053;53.358;6.382;2023-05-07T18:07:13;101969.88;;;18.26;93.93
17855;BME280;9053;53.358;6.382;2023-05-07T18:09:46;101971.66;;;18.25;94.17
17855;BME280;9053;53.358;6.382;2023-05-07T18:12:16;101976.09;;;18.26;94.26
17855;BME280;9053;53.358;6.382;2023-05-07T18:14:46;101970.81;;;18.28;94.27
17855;BME280;9053;53.358;6.382;2023-05-07T18:17:16;101976.06;;;18.23;94.16
17855;BME280;9053;53.358;6.382;2023-05-07T18:19:50;101978.63;;;18.19;93.97
17855;BME280;9053;53.358;6.382;2023-05-07T18:22:21;101984.78;;;18.14;93.76
17855;BME280;9053;53.358;6.382;2023-05-07T18:24:53;101981.94;;;18.07;93.55
17855;BME280;9053;53.358;6.382;2023-05-07T18:27:24;101989.00;;;18.05;93.78
17855;BME280;9053;53.358;6.382;2023-05-07T18:29:54;101984.47;;;18.01;93.69
17855;BME280;9053;53.358;6.382;2023-05-07T18:32:26;101989.69;;;17.96;93.37
17855;BME280;9053;53.358;6.382;2023-05-07T18:34:58;101986.91;;;17.90;93.22
17855;BME280;9053;53.358;6.382;2023-05-07T18:37:28;101993.00;;;17.86;93.02
17855;BME280;9053;53.358;6.382;2023-05-07T18:40:01;101991.03;;;17.79;92.98
17855;BME280;9053;53.358;6.382;2023-05-07T18:42:31;102000.66;;;17.73;93.21
17855;BME280;9053;53.358;6.382;2023-05-07T18:45:03;101995.28;;;17.69;93.23
17855;BME280;9053;53.358;6.382;2023-05-07T18:47:33;102003.16;;;17.66;93.47
17855;BME280;9053;53.358;6.382;2023-05-07T18:50:04;102008.47;;;17.64;93.38
17855;BME280;9053;53.358;6.382;2023-05-07T18:52:35;102008.41;;;17.63;93.63
17855;BME280;9053;53.358;6.382;2023-05-07T18:55:09;102016.41;;;17.63;93.67
17855;BME280;9053;53.358;6.382;2023-05-07T18:57:39;102008.38;;;17.61;93.65